sensor_id;sensor_type;location;lat;lon;timestamp;temperature;humidity
28297;DHT22;62078;49.366;8.172;2023-08-06T08:46:48;22.20;57.80
28297;DHT22;62078;49.366;8.172;2023-08-06T08:49:14;21.40;64.80
28297;DHT22;62078;49.366;8.172;2023-08-06T08:51:40;21.40;64.90
28297;DHT22;62078;49.366;8.172;2023-08-06T08:54:07;21.50;65.00
28297;DHT22;62078;49.366;8.172;2023-08-06T08:56:34;21.50;64.90
28297;DHT22;62078;49.366;8.172;2023-08-06T08:58:59;21.50;64.90
28297;DHT22;62078;49.366;8.172;2023-08-06T09:01:26;21.50;64.80
28297;DHT22;62078;49.366;8.172;2023-08-06T09:03:54;21.40;64.40
28297;DHT22;62078;49.366;8.172;2023-08-06T09:06:21;21.20;64.70
28297;DHT22;62078;49.366;8.172;2023-08-06T09:09:13;21.20;65.30
28297;DHT22;62078;49.366;8.172;2023-08-06T09:11:43;21.20;65.30
28297;DHT22;62078;49.366;8.172;2023-08-06T09:14:10;21.30;65.10
28297;DHT22;62078;49.366;8.172;2023-08-06T09:16:37;21.30;65.00
28297;DHT22;62078;49.366;8.172;2023-08-06T09:19:12;21.40;65.00
28297;DHT22;62078;49.366;8.172;2023-08-06T09:21:39;21.30;65.60
28297;DHT22;62078;49.366;8.172;2023-08-06T09:24:12;21.40;64.80
28297;DHT22;62078;49.366;8.172;2023-08-06T09:26:42;21.30;64.70
28297;DHT22;62078;49.366;8.172;2023-08-06T09:29:09;21.20;64.80
28297;DHT22;62078;49.366;8.172;2023-08-06T09:34:10;21.00;66.10
28297;DHT22;62078;49.366;8.172;2023-08-06T09:36:41;21.00;66.30
28297;DHT22;62078;49.366;8.172;2023-08-06T09:39:13;20.90;66.70
28297;DHT22;62078;49.366;8.172;2023-08-06T09:41:40;20.80;66.30
28297;DHT22;62078;49.366;8.172;2023-08-06T09:44:09;20.80;66.80
28297;DHT22;62078;49.366;8.172;2023-08-06T09:46:40;20.90;66.70
28297;DHT22;62078;49.366;8.172;2023-08-06T09:49:06;21.00;66.40
28297;DHT22;62078;49.366;8.172;2023-08-06T09:51:34;21.10;66.20
28297;DHT22;62078;49.366;8.172;2023-08-06T09:54:01;21.10;65.80
28297;DHT22;62078;49.366;8.172;2023-08-06T09:56:27;21.10;65.70
28297;DHT22;62078;49.366;8.172;2023-08-06T09:58:54;21.10;65.40
28297;DHT22;62078;49.366;8.172;2023-08-06T10:01:21;21.10;65.30
28297;DHT22;62078;49.366;8.172;2023-08-06T10:03:49;21.20;65.10
28297;DHT22;62078;49.366;8.172;2023-08-06T10:06:16;21.20;64.70
28297;DHT22;62078;49.366;8.172;2023-08-06T10:08:43;21.20;64.80
28297;DHT22;62078;49.366;8.172;2023-08-06T10:11:09;21.20;64.70
28297;DHT22;62078;49.366;8.172;2023-08-06T10:13:36;21.20;64.60
28297;DHT22;62078;49.366;8.172;2023-08-06T10:16:03;21.20;64.50
28297;DHT22;62078;49.366;8.172;2023-08-06T10:18:30;21.20;64.40
28297;DHT22;62078;49.366;8.172;2023-08-06T10:20:56;21.20;64.30
28297;DHT22;62078;49.366;8.172;2023-08-06T10:23:33;21.30;64.20
28297;DHT22;62078;49.366;8.172;2023-08-06T10:26:00;21.30;64.20
28297;DHT22;62078;49.366;8.172;2023-08-06T10:28:34;21.30;64.00
28297;DHT22;62078;49.366;8.172;2023-08-06T10:31:01;21.20;63.90
28297;DHT22;62078;49.366;8.172;2023-08-06T10:33:44;21.30;63.90
28297;DHT22;62078;49.366;8.172;2023-08-06T10:36:10;21.20;63.80
28297;DHT22;62078;49.366;8.172;2023-08-06T10:38:48;21.30;63.80
28297;DHT22;62078;49.366;8.172;2023-08-06T10:41:27;21.30;63.80
28297;DHT22;62078;49.366;8.172;2023-08-06T10:44:06;21.20;63.70
28297;DHT22;62078;49.366;8.172;2023-08-06T10:46:35;21.20;63.50
28297;DHT22;62078;49.366;8.172;2023-08-06T10:49:02;21.20;63.50
28297;DHT22;62078;49.366;8.172;2023-08-06T10:51:27;21.20;63.50
28297;DHT22;62078;49.366;8.172;2023-08-06T10:53:53;21.20;63.50
28297;DHT22;62078;49.366;8.172;2023-08-06T10:56:21;21.20;63.40
28297;DHT22;62078;49.366;8.172;2023-08-06T10:58:53;21.20;63.10
28297;DHT22;62078;49.366;8.172;2023-08-06T11:01:19;21.20;63.10
28297;DHT22;62078;49.366;8.172;2023-08-06T11:03:46;21.20;63.10
28297;DHT22;62078;49.366;8.172;2023-08-06T11:06:20;21.10;62.90
28297;DHT22;62078;49.366;8.172;2023-08-06T11:08:53;21.10;63.00
28297;DHT22;62078;49.366;8.172;2023-08-06T11:11:20;21.20;62.80
28297;DHT22;62078;49.366;8.172;2023-08-06T11:13:48;21.20;62.70
28297;DHT22;62078;49.366;8.172;2023-08-06T11:16:19;21.10;62.50
28297;DHT22;62078;49.366;8.172;2023-08-06T11:18:46;21.10;62.50
28297;DHT22;62078;49.366;8.172;2023-08-06T11:21:13;21.10;62.40
28297;DHT22;62078;49.366;8.172;2023-08-06T11:23:39;21.10;62.30
28297;DHT22;62078;49.366;8.172;2023-08-06T11:26:05;21.10;62.10
28297;DHT22;62078;49.366;8.172;2023-08-06T11:28:31;21.10;62.10
28297;DHT22;62078;49.366;8.172;2023-08-06T11:30:58;21.10;62.00
28297;DHT22;62078;49.366;8.172;2023-08-06T11:33:27;21.10;61.80
28297;DHT22;62078;49.366;8.172;2023-08-06T11:35:58;21.10;61.70
28297;DHT22;62078;49.366;8.172;2023-08-06T11:38:29;21.10;61.60
28297;DHT22;62078;49.366;8.172;2023-08-06T11:40:56;21.10;61.60
28297;DHT22;62078;49.366;8.172;2023-08-06T11:43:22;21.10;61.60
28297;DHT22;62078;49.366;8.172;2023-08-06T11:45:51;21.10;61.60
28297;DHT22;62078;49.366;8.172;2023-08-06T11:48:19;21.10;61.70
28297;DHT22;62078;49.366;8.172;2023-08-06T11:50:45;21.10;61.60
28297;DHT22;62078;49.366;8.172;2023-08-06T11:53:14;21.10;61.60
28297;DHT22;62078;49.366;8.172;2023-08-06T11:55:41;21.10;61.50
28297;DHT22;62078;49.366;8.172;2023-08-06T11:58:08;21.10;61.30
28297;DHT22;62078;49.366;8.172;2023-08-06T12:00:34;21.10;61.30
28297;DHT22;62078;49.366;8.172;2023-08-06T12:03:01;21.00;61.10
28297;DHT22;62078;49.366;8.172;2023-08-06T12:05:31;21.10;61.30
28297;DHT22;62078;49.366;8.172;2023-08-06T12:08:00;21.10;61.10
28297;DHT22;62078;49.366;8.172;2023-08-06T12:10:27;21.00;60.90
28297;DHT22;62078;49.366;8.172;2023-08-06T12:12:54;21.10;60.80
28297;DHT22;62078;49.366;8.172;2023-08-06T12:15:20;21.10;60.90
28297;DHT22;62078;49.366;8.172;2023-08-06T12:17:46;21.10;61.00
28297;DHT22;62078;49.366;8.172;2023-08-06T12:20:12;21.10;61.20
28297;DHT22;62078;49.366;8.172;2023-08-06T12:22:38;21.10;61.30
28297;DHT22;62078;49.366;8.172;2023-08-06T12:25:08;21.10;61.40
28297;DHT22;62078;49.366;8.172;2023-08-06T12:27:34;21.10;61.70
28297;DHT22;62078;49.366;8.172;2023-08-06T12:30:00;21.10;61.80
28297;DHT22;62078;49.366;8.172;2023-08-06T12:32:26;21.10;61.90
28297;DHT22;62078;49.366;8.172;2023-08-06T12:34:52;21.10;62.00
28297;DHT22;62078;49.366;8.172;2023-08-06T12:37:18;21.10;62.00
28297;DHT22;62078;49.366;8.172;2023-08-06T12:39:43;21.00;61.90
28297;DHT22;62078;49.366;8.172;2023-08-06T12:42:09;21.00;61.80
28297;DHT22;62078;49.366;8.172;2023-08-06T12:44:36;21.10;61.90
28297;DHT22;62078;49.366;8.172;2023-08-06T12:47:01;21.00;61.90
28297;DHT22;62078;49.366;8.172;2023-08-06T12:49:27;21.00;62.00
28297;DHT22;62078;49.366;8.172;2023-08-06T12:51:54;21.10;62.10
28297;DHT22;62078;49.366;8.172;2023-08-06T12:54:22;21.10;62.00
28297;DHT22;62078;49.366;8.172;2023-08-06T12:56:48;21.00;61.90
28297;DHT22;62078;49.366;8.172;2023-08-06T12:59:16;21.00;62.00
28297;DHT22;62078;49.366;8.172;2023-08-06T13:01:42;21.10;62.00
28297;DHT22;62078;49.366;8.172;2023-08-06T13:04:09;21.00;61.80
28297;DHT22;62078;49.366;8.172;2023-08-06T13:06:35;21.00;61.70
28297;DHT22;62078;49.366;8.172;2023-08-06T13:09:07;21.00;61.70
28297;DHT22;62078;49.366;8.172;2023-08-06T13:11:34;21.10;61.70
28297;DHT22;62078;49.366;8.172;2023-08-06T13:14:05;21.00;61.60
28297;DHT22;62078;49.366;8.172;2023-08-06T13:16:32;21.00;61.60
28297;DHT22;62078;49.366;8.172;2023-08-06T13:18:58;21.00;61.60
28297;DHT22;62078;49.366;8.172;2023-08-06T13:21:23;21.00;61.60
28297;DHT22;62078;49.366;8.172;2023-08-06T13:23:49;21.00;61.50
28297;DHT22;62078;49.366;8.172;2023-08-06T13:26:15;21.00;61.60
28297;DHT22;62078;49.366;8.172;2023-08-06T13:28:43;21.00;61.60
28297;DHT22;62078;49.366;8.172;2023-08-06T13:31:10;21.00;61.50
28297;DHT22;62078;49.366;8.172;2023-08-06T13:33:35;21.00;61.50
28297;DHT22;62078;49.366;8.172;2023-08-06T13:36:01;21.00;61.40
28297;DHT22;62078;49.366;8.172;2023-08-06T13:38:27;21.00;61.40
28297;DHT22;62078;49.366;8.172;2023-08-06T13:40:52;21.00;61.40
28297;DHT22;62078;49.366;8.172;2023-08-06T13:43:18;21.00;61.40
28297;DHT22;62078;49.366;8.172;2023-08-06T13:45:44;21.10;61.50
28297;DHT22;62078;49.366;8.172;2023-08-06T13:48:10;21.10;61.50
28297;DHT22;62078;49.366;8.172;2023-08-06T13:50:36;21.00;61.30
28297;DHT22;62078;49.366;8.172;2023-08-06T13:53:03;21.00;61.30
28297;DHT22;62078;49.366;8.172;2023-08-06T13:55:28;21.00;61.20
28297;DHT22;62078;49.366;8.172;2023-08-06T13:57:55;21.00;61.20
28297;DHT22;62078;49.366;8.172;2023-08-06T14:00:21;21.00;61.20
28297;DHT22;62078;49.366;8.172;2023-08-06T14:02:47;21.00;61.20
28297;DHT22;62078;49.366;8.172;2023-08-06T14:05:13;21.00;61.20
28297;DHT22;62078;49.366;8.172;2023-08-06T14:07:41;21.00;61.20
28297;DHT22;62078;49.366;8.172;2023-08-06T14:10:07;21.10;61.30
